Time;durP1;ratioP1;P1;durP2;ratioP2;P2;SDS_P1;SDS_P2;PMS_P1;PMS_P2;Temp;Humidity;BMP_temperature;BMP_pressure;BME280_temperature;BME280_humidity;BME280_pressure;Samples;Min_cycle;Max_cycle;Signal;HPM_P1;HPM_P2
2022/09/11 00:00:46;;;;;;;43.03;20.17;;;;;;;;;;5013357;28;20063;-87
2022/09/11 00:03:12;;;;;;;50.40;22.15;;;;;;;;;;5031821;28;20036;-87
2022/09/11 00:05:38;;;;;;;42.20;21.45;;;;;;;;;;5034871;28;20029;-87
2022/09/11 00:08:04;;;;;;;40.40;21.38;;;;;;;;;;5030219;28;20022;-87
2022/09/11 00:10:30;;;;;;;44.60;21.48;;;;;;;;;;5017565;28;20025;-87
2022/09/11 00:12:56;;;;;;;41.92;21.52;;;;;;;;;;5017071;28;20401;-87
2022/09/11 00:15:21;;;;;;;41.30;21.55;;;;;;;;;;5018575;28;20057;-87
2022/09/11 00:17:46;;;;;;;54.23;22.80;;;;;;;;;;5024798;28;20025;-87
2022/09/11 00:20:11;;;;;;;46.17;22.08;;;;;;;;;;5035034;28;20287;-87
2022/09/11 00:22:37;;;;;;;46.40;22.13;;;;;;;;;;5017117;28;20025;-87
2022/09/11 00:25:02;;;;;;;43.03;22.10;;;;;;;;;;5022818;28;20014;-87
2022/09/11 00:27:27;;;;;;;48.08;22.73;;;;;;;;;;5009694;28;20493;-87
2022/09/11 00:29:53;;;;;;;42.33;21.83;;;;;;;;;;5017568;28;20049;-87
2022/09/11 00:32:18;;;;;;;51.08;24.08;;;;;;;;;;5025772;28;20271;-88
2022/09/11 00:34:45;;;;;;;49.08;24.75;;;;;;;;;;5015653;28;20520;-87
2022/09/11 00:37:11;;;;;;;46.95;23.50;;;;;;;;;;5011294;28;20104;-88
2022/09/11 00:39:36;;;;;;;50.85;23.58;;;;;;;;;;5028619;28;20029;-87
2022/09/11 00:42:01;;;;;;;45.20;23.65;;;;;;;;;;5014905;28;20108;-88
2022/09/11 00:44:27;;;;;;;56.95;26.38;;;;;;;;;;5017564;28;20028;-87
2022/09/11 00:46:54;;;;;;;61.17;27.65;;;;;;;;;;5028188;28;20068;-88
2022/09/11 00:49:25;;;;;;;59.13;26.35;;;;;;;;;;5006935;28;20018;-87
2022/09/11 00:51:56;;;;;;;53.42;26.92;;;;;;;;;;5009904;28;20111;-88
2022/09/11 00:54:25;;;;;;;62.08;28.30;;;;;;;;;;5013215;28;20017;-87
2022/09/11 00:57:02;;;;;;;60.05;27.88;;;;;;;;;;5009226;28;20033;-90
2022/09/11 01:03:46;;;;;;;;;;;;;;;;;;;;;
2022/09/11 01:06:30;;;;;;;52.45;26.23;;;;;;;;;;4910511;28;20045;-91
2022/09/11 01:09:01;;;;;;;61.97;27.83;;;;;;;;;;5009029;28;20056;-92
2022/09/11 01:11:33;;;;;;;53.58;27.50;;;;;;;;;;5012079;28;20025;-92
2022/09/11 01:14:19;;;;;;;61.05;27.20;;;;;;;;;;5014346;28;20045;-91
2022/09/11 01:19:47;;;;;;;54.15;26.00;;;;;;;;;;4975859;28;20522;-91
2022/09/11 01:22:45;;;;;;;57.97;29.02;;;;;;;;;;5011796;28;20025;-92
2022/09/11 01:25:40;;;;;;;55.85;27.45;;;;;;;;;;4947613;28;20105;-91
2022/09/11 01:28:38;;;;;;;52.20;27.48;;;;;;;;;;5012586;28;20049;-91
2022/09/11 01:31:10;;;;;;;61.95;27.60;;;;;;;;;;4996229;28;20044;-91
2022/09/11 01:36:57;;;;;;;54.40;27.42;;;;;;;;;;5009840;28;20034;-92
2022/09/11 01:39:53;;;;;;;;;;;;;;;;;;;;;
2022/09/11 01:42:47;;;;;;;56.35;27.35;;;;;;;;;;5029618;28;20017;-90
2022/09/11 01:45:30;;;;;;;49.10;25.98;;;;;;;;;;5018863;28;20032;-92
2022/09/11 01:48:17;;;;;;;57.00;26.85;;;;;;;;;;5022101;28;20030;-92
2022/09/11 01:50:55;;;;;;;54.53;27.92;;;;;;;;;;5019348;28;20029;-92
2022/09/11 01:53:47;;;;;;;64.40;27.77;;;;;;;;;;5009604;28;20025;-91
2022/09/11 01:56:18;;;;;;;57.92;27.42;;;;;;;;;;4993736;28;20033;-91
2022/09/11 01:59:06;;;;;;;63.20;28.58;;;;;;;;;;5007868;28;20041;-92
2022/09/11 02:01:38;;;;;;;63.47;28.73;;;;;;;;;;4971509;28;20034;-91
2022/09/11 02:04:08;;;;;;;68.68;28.42;;;;;;;;;;5020289;28;20092;-91
2022/09/11 02:06:39;;;;;;;72.53;31.42;;;;;;;;;;5018831;28;21114;-91
2022/09/11 02:09:09;;;;;;;64.63;30.65;;;;;;;;;;5029201;28;20073;-90
2022/09/11 02:11:45;;;;;;;66.50;32.22;;;;;;;;;;5026292;28;20079;-90
2022/09/11 02:14:20;;;;;;;65.78;31.30;;;;;;;;;;5038760;28;20528;-90
2022/09/11 02:17:00;;;;;;;66.90;32.63;;;;;;;;;;5028958;28;20101;-90
2022/09/11 02:19:39;;;;;;;71.50;30.65;;;;;;;;;;5025675;28;20017;-90
2022/09/11 02:22:15;;;;;;;62.13;30.23;;;;;;;;;;5018850;28;20030;-90
2022/09/11 02:24:43;;;;;;;63.35;31.30;;;;;;;;;;5013870;28;20025;-91
2022/09/11 02:27:13;;;;;;;67.13;29.40;;;;;;;;;;5030149;28;20021;-90
2022/09/11 02:29:38;;;;;;;65.05;31.77;;;;;;;;;;5012739;28;20026;-90
2022/09/11 02:32:07;;;;;;;70.43;32.25;;;;;;;;;;5033332;28;20022;-91
2022/09/11 02:34:46;;;;;;;67.38;33.38;;;;;;;;;;5018853;28;20075;-90
2022/09/11 02:37:15;;;;;;;68.20;33.60;;;;;;;;;;5029656;28;20068;-91
2022/09/11 02:39:59;;;;;;;63.25;32.58;;;;;;;;;;5018919;28;20033;-90
2022/09/11 02:42:50;;;;;;;69.55;33.83;;;;;;;;;;5026541;28;20143;-92
2022/09/11 02:45:18;;;;;;;73.88;33.47;;;;;;;;;;5008557;28;20033;-90
2022/09/11 02:48:06;;;;;;;80.00;34.47;;;;;;;;;;5014460;28;20664;-90
2022/09/11 02:50:40;;;;;;;72.15;33.40;;;;;;;;;;5012178;28;20025;-91
2022/09/11 02:53:26;;;;;;;77.75;36.55;;;;;;;;;;5035013;28;20036;-91
2022/09/11 02:55:55;;;;;;;81.32;36.13;;;;;;;;;;5031495;28;20071;-90
2022/09/11 02:58:23;;;;;;;84.70;37.50;;;;;;;;;;5038856;28;20021;-91
2022/09/11 03:00:55;;;;;;;75.70;36.22;;;;;;;;;;5031966;28;20109;-91
2022/09/11 03:03:25;;;;;;;85.03;38.63;;;;;;;;;;5013774;28;20556;-91
2022/09/11 03:05:51;;;;;;;92.45;38.45;;;;;;;;;;5030783;28;20541;-91
2022/09/11 03:08:23;;;;;;;85.85;39.72;;;;;;;;;;5026218;28;20096;-92
2022/09/11 03:10:48;;;;;;;81.50;35.55;;;;;;;;;;5020504;28;20594;-91
2022/09/11 03:13:14;;;;;;;83.07;38.70;;;;;;;;;;5017974;28;20086;-90
2022/09/11 03:15:42;;;;;;;94.00;42.28;;;;;;;;;;5029977;28;20024;-90
2022/09/11 03:18:20;;;;;;;92.57;39.30;;;;;;;;;;5020861;28;20108;-91
2022/09/11 03:20:48;;;;;;;114.57;43.90;;;;;;;;;;5020262;28;20021;-90
2022/09/11 03:23:14;;;;;;;93.38;38.47;;;;;;;;;;5028394;28;20017;-91
2022/09/11 03:25:42;;;;;;;100.57;43.30;;;;;;;;;;5013802;28;20036;-91
2022/09/11 03:28:11;;;;;;;94.00;39.13;;;;;;;;;;5013459;28;20021;-90
2022/09/11 03:30:40;;;;;;;81.85;39.17;;;;;;;;;;5019781;28;20053;-91
2022/09/11 03:33:06;;;;;;;85.88;37.55;;;;;;;;;;5027427;28;20105;-91
2022/09/11 03:35:42;;;;;;;94.22;39.72;;;;;;;;;;5013664;28;20104;-90
2022/09/11 03:38:11;;;;;;;100.00;41.95;;;;;;;;;;5028563;28;20028;-90
2022/09/11 03:40:36;;;;;;;107.90;40.97;;;;;;;;;;5017047;28;20035;-90
2022/09/11 03:43:05;;;;;;;113.47;42.60;;;;;;;;;;5018780;28;20466;-90
2022/09/11 03:45:31;;;;;;;103.57;42.58;;;;;;;;;;5019238;28;20120;-91
2022/09/11 03:48:00;;;;;;;104.47;45.60;;;;;;;;;;5014103;28;20108;-92
2022/09/11 03:50:27;;;;;;;126.35;46.45;;;;;;;;;;5013869;28;20021;-90
2022/09/11 03:52:53;;;;;;;149.73;48.10;;;;;;;;;;5029309;28;20451;-90
2022/09/11 03:55:18;;;;;;;138.40;49.95;;;;;;;;;;5035957;28;20100;-91
2022/09/11 03:57:44;;;;;;;161.88;51.58;;;;;;;;;;5011649;28;20125;-91
2022/09/11 04:00:19;;;;;;;171.65;54.05;;;;;;;;;;5030979;28;20052;-91
2022/09/11 04:02:44;;;;;;;174.80;56.50;;;;;;;;;;5022335;28;20031;-90
2022/09/11 04:05:09;;;;;;;172.32;55.33;;;;;;;;;;5015179;28;20388;-91
2022/09/11 04:07:35;;;;;;;186.20;56.55;;;;;;;;;;5015453;28;20029;-91
2022/09/11 04:10:00;;;;;;;176.95;57.53;;;;;;;;;;5030630;28;20018;-90
2022/09/11 04:12:34;;;;;;;211.18;59.47;;;;;;;;;;5009330;28;20072;-91
2022/09/11 04:15:01;;;;;;;200.25;56.35;;;;;;;;;;5029052;28;20481;-91
2022/09/11 04:17:28;;;;;;;203.25;55.55;;;;;;;;;;5010040;28;20105;-91
2022/09/11 04:19:53;;;;;;;189.25;55.55;;;;;;;;;;5028162;28;20081;-90
2022/09/11 04:22:23;;;;;;;193.00;56.15;;;;;;;;;;5019533;28;20410;-90
2022/09/11 04:24:48;;;;;;;199.07;55.88;;;;;;;;;;5031623;28;20029;-91
2022/09/11 04:27:17;;;;;;;191.85;55.20;;;;;;;;;;5033188;28;20086;-91
2022/09/11 04:29:45;;;;;;;181.35;54.10;;;;;;;;;;5011924;28;20500;-91
2022/09/11 04:32:10;;;;;;;188.32;55.28;;;;;;;;;;5029655;28;20021;-90
2022/09/11 04:34:36;;;;;;;197.75;55.70;;;;;;;;;;5029168;28;20461;-91
2022/09/11 04:37:02;;;;;;;199.45;57.55;;;;;;;;;;5017156;28;20481;-91
2022/09/11 04:39:28;;;;;;;217.10;58.42;;;;;;;;;;5019200;28;20440;-90
2022/09/11 04:41:54;;;;;;;235.63;59.80;;;;;;;;;;5022695;28;20470;-91
2022/09/11 04:44:33;;;;;;;240.00;61.45;;;;;;;;;;5014386;28;20158;-92
2022/09/11 04:47:00;;;;;;;235.13;62.28;;;;;;;;;;5014236;28;20037;-91
2022/09/11 04:49:25;;;;;;;237.77;61.50;;;;;;;;;;5026826;28;20032;-90
2022/09/11 04:51:51;;;;;;;258.75;63.65;;;;;;;;;;5009565;28;20025;-91
2022/09/11 04:54:17;;;;;;;268.15;64.95;;;;;;;;;;5014342;28;20056;-90
2022/09/11 04:56:42;;;;;;;236.18;62.88;;;;;;;;;;5013616;28;20026;-91
2022/09/11 04:59:14;;;;;;;254.80;64.63;;;;;;;;;;5010762;28;20025;-91
2022/09/11 05:01:40;;;;;;;239.15;59.47;;;;;;;;;;5019148;28;20044;-91
2022/09/11 05:04:07;;;;;;;254.60;64.63;;;;;;;;;;5014107;28;20034;-91
2022/09/11 05:06:35;;;;;;;247.05;62.15;;;;;;;;;;5004273;28;20026;-91
2022/09/11 05:09:05;;;;;;;259.58;62.13;;;;;;;;;;5022203;28;20075;-91
2022/09/11 05:11:33;;;;;;;277.05;66.90;;;;;;;;;;5016921;28;20028;-90
2022/09/11 05:13:59;;;;;;;265.27;62.80;;;;;;;;;;5013435;28;20632;-90
2022/09/11 05:16:28;;;;;;;273.52;66.68;;;;;;;;;;5025901;28;20017;-90
2022/09/11 05:18:54;;;;;;;269.30;65.78;;;;;;;;;;5027201;28;20025;-92
2022/09/11 05:21:24;;;;;;;262.75;64.63;;;;;;;;;;5030424;28;20036;-91
2022/09/11 05:23:52;;;;;;;255.07;63.92;;;;;;;;;;5018754;28;20033;-91
2022/09/11 05:26:27;;;;;;;289.35;65.90;;;;;;;;;;5014693;28;20020;-90
2022/09/11 05:28:56;;;;;;;278.88;66.75;;;;;;;;;;5011514;28;20025;-91
2022/09/11 05:31:24;;;;;;;280.97;66.53;;;;;;;;;;5024059;28;20017;-90
2022/09/11 05:33:50;;;;;;;272.48;67.10;;;;;;;;;;5031509;28;20317;-91
2022/09/11 05:36:16;;;;;;;284.13;65.82;;;;;;;;;;5008854;28;20468;-90
2022/09/11 05:38:45;;;;;;;302.35;69.20;;;;;;;;;;5027016;28;20035;-91
2022/09/11 05:41:12;;;;;;;320.13;71.80;;;;;;;;;;5034045;28;20013;-90
2022/09/11 05:43:38;;;;;;;292.42;66.60;;;;;;;;;;5012575;28;20060;-91
2022/09/11 05:46:04;;;;;;;292.20;66.50;;;;;;;;;;5025072;28;20056;-90
2022/09/11 05:48:30;;;;;;;327.45;73.78;;;;;;;;;;5016516;28;20021;-89
2022/09/11 05:50:58;;;;;;;294.13;72.13;;;;;;;;;;5017698;28;20046;-90
2022/09/11 05:53:24;;;;;;;292.10;70.18;;;;;;;;;;5030529;28;20044;-91
2022/09/11 05:55:53;;;;;;;313.63;71.82;;;;;;;;;;5047430;28;22252;-92
2022/09/11 05:58:21;;;;;;;284.75;68.55;;;;;;;;;;5042540;28;20059;-92
2022/09/11 06:00:49;;;;;;;277.10;68.20;;;;;;;;;;5052478;28;20051;-92
2022/09/11 06:03:16;;;;;;;277.10;68.40;;;;;;;;;;5038044;28;20017;-92
2022/09/11 06:05:44;;;;;;;257.08;65.30;;;;;;;;;;5052121;28;20587;-92
2022/09/11 06:08:10;;;;;;;274.20;66.70;;;;;;;;;;5036055;28;20052;-91
2022/09/11 06:10:36;;;;;;;285.70;67.88;;;;;;;;;;5026600;28;20017;-90
2022/09/11 06:13:01;;;;;;;293.48;69.75;;;;;;;;;;5011324;28;20544;-89
2022/09/11 06:15:27;;;;;;;270.00;69.88;;;;;;;;;;5028767;28;20017;-90
2022/09/11 06:17:52;;;;;;;284.02;72.95;;;;;;;;;;5012225;28;20401;-90
2022/09/11 06:20:18;;;;;;;282.67;69.80;;;;;;;;;;5021848;28;20017;-90
2022/09/11 06:22:44;;;;;;;287.02;68.85;;;;;;;;;;5039621;28;20025;-91
2022/09/11 06:25:10;;;;;;;252.38;65.93;;;;;;;;;;5033173;28;20473;-91
2022/09/11 06:27:35;;;;;;;281.45;68.00;;;;;;;;;;5016870;28;20552;-90
2022/09/11 06:30:01;;;;;;;275.00;65.28;;;;;;;;;;5016627;28;20156;-91
2022/09/11 06:32:26;;;;;;;298.75;72.05;;;;;;;;;;5024739;28;20501;-90
2022/09/11 06:34:53;;;;;;;260.52;65.13;;;;;;;;;;5016655;28;20029;-91
2022/09/11 06:37:19;;;;;;;271.27;65.32;;;;;;;;;;5017290;28;20493;-91
2022/09/11 06:39:44;;;;;;;265.23;65.65;;;;;;;;;;5022309;28;20031;-92
2022/09/11 06:42:09;;;;;;;284.38;68.18;;;;;;;;;;5030456;28;20024;-91
2022/09/11 06:44:41;;;;;;;276.50;68.30;;;;;;;;;;5027946;28;20037;-91
2022/09/11 06:47:08;;;;;;;254.98;65.28;;;;;;;;;;5011790;28;20022;-90
2022/09/11 06:49:34;;;;;;;265.88;64.63;;;;;;;;;;5030288;28;20058;-90
2022/09/11 06:51:59;;;;;;;264.17;66.47;;;;;;;;;;5037173;28;20049;-90
2022/09/11 06:54:28;;;;;;;259.48;63.03;;;;;;;;;;5050666;28;20057;-90
2022/09/11 06:56:54;;;;;;;240.32;61.08;;;;;;;;;;5015351;28;20045;-90
2022/09/11 06:59:22;;;;;;;232.38;61.05;;;;;;;;;;5015468;28;20014;-90
2022/09/11 07:01:49;;;;;;;227.27;58.20;;;;;;;;;;5018681;28;20029;-91
2022/09/11 07:04:22;;;;;;;226.63;60.35;;;;;;;;;;5030254;28;20017;-90
2022/09/11 07:06:48;;;;;;;227.00;58.38;;;;;;;;;;5005811;28;20036;-91
2022/09/11 07:09:14;;;;;;;243.52;62.60;;;;;;;;;;5015016;28;20053;-90
2022/09/11 07:11:43;;;;;;;228.73;60.83;;;;;;;;;;5012401;28;20653;-91
2022/09/11 07:14:11;;;;;;;234.70;63.15;;;;;;;;;;5022537;28;20070;-90
2022/09/11 07:16:36;;;;;;;208.00;58.83;;;;;;;;;;5029086;28;20014;-91
2022/09/11 07:19:04;;;;;;;201.57;55.38;;;;;;;;;;5023502;28;20032;-90
2022/09/11 07:21:43;;;;;;;203.85;56.90;;;;;;;;;;5011611;28;20504;-90
2022/09/11 07:24:32;;;;;;;194.98;54.65;;;;;;;;;;5038905;28;20055;-91
2022/09/11 07:26:57;;;;;;;192.98;57.95;;;;;;;;;;5006402;28;20564;-90
2022/09/11 07:29:34;;;;;;;214.70;59.13;;;;;;;;;;5013166;28;20025;-90
2022/09/11 07:32:00;;;;;;;219.15;60.83;;;;;;;;;;5024483;28;20090;-91
2022/09/11 07:34:25;;;;;;;220.82;63.05;;;;;;;;;;5030092;28;20525;-91
2022/09/11 07:36:51;;;;;;;226.27;63.95;;;;;;;;;;5018341;28;20039;-90
2022/09/11 07:39:17;;;;;;;224.48;60.95;;;;;;;;;;5020859;28;20686;-90
2022/09/11 07:41:45;;;;;;;208.40;61.58;;;;;;;;;;5026185;28;20021;-90
2022/09/11 07:44:10;;;;;;;192.32;53.85;;;;;;;;;;5011280;28;20020;-90
2022/09/11 07:46:45;;;;;;;189.70;55.92;;;;;;;;;;5015862;28;20037;-90
2022/09/11 07:49:10;;;;;;;177.52;53.13;;;;;;;;;;5012426;28;20017;-91
2022/09/11 07:51:36;;;;;;;189.15;54.13;;;;;;;;;;5020341;28;20124;-91
2022/09/11 07:54:02;;;;;;;170.43;51.08;;;;;;;;;;5030115;28;20487;-90
2022/09/11 07:56:32;;;;;;;193.30;54.47;;;;;;;;;;5012369;28;20024;-90
2022/09/11 07:58:57;;;;;;;;;;;;;;;;;;5018142;28;20022;-90
2022/09/11 08:01:51;;;;;;;162.38;48.47;;;;;;;;;;5030671;28;20375;-90
2022/09/11 08:04:31;;;;;;;163.80;48.78;;;;;;;;;;5019130;28;20037;-90
2022/09/11 08:07:26;;;;;;;;;;;;;;;;;;;;;
2022/09/11 08:10:03;;;;;;;190.13;55.25;;;;;;;;;;5029969;28;20032;-90
2022/09/11 08:12:54;;;;;;;187.50;53.75;;;;;;;;;;5018262;28;20036;-89
2022/09/11 08:15:25;;;;;;;179.23;54.47;;;;;;;;;;5035562;28;20028;-91
2022/09/11 08:18:08;;;;;;;;;;;;;;;;;;;;;
2022/09/11 08:20:34;;;;;;;168.57;51.00;;;;;;;;;;5005696;28;20034;-90
2022/09/11 08:23:02;;;;;;;167.45;51.22;;;;;;;;;;5031292;28;20116;-90
2022/09/11 08:25:27;;;;;;;146.05;48.45;;;;;;;;;;5040251;28;20041;-89
2022/09/11 08:27:53;;;;;;;144.75;47.63;;;;;;;;;;5031767;28;20018;-90
2022/09/11 08:30:22;;;;;;;144.50;44.92;;;;;;;;;;5034504;28;20027;-90
2022/09/11 08:32:49;;;;;;;127.15;43.78;;;;;;;;;;5024623;28;20543;-90
2022/09/11 08:35:15;;;;;;;137.60;43.25;;;;;;;;;;5022417;28;20027;-90
2022/09/11 08:37:40;;;;;;;129.30;41.88;;;;;;;;;;5031330;28;20104;-90
2022/09/11 08:40:06;;;;;;;124.75;44.42;;;;;;;;;;5013790;28;20029;-90
2022/09/11 08:42:38;;;;;;;115.97;40.08;;;;;;;;;;5016540;28;20064;-90
2022/09/11 08:45:06;;;;;;;113.53;36.28;;;;;;;;;;5026665;28;20080;-90
2022/09/11 08:47:47;;;;;;;107.70;36.75;;;;;;;;;;5029199;28;20021;-90
2022/09/11 08:50:47;;;;;;;105.60;36.15;;;;;;;;;;5012713;28;20029;-90
2022/09/11 08:53:14;;;;;;;97.95;35.70;;;;;;;;;;4953569;28;20095;-90
2022/09/11 08:55:45;;;;;;;99.35;35.78;;;;;;;;;;5028263;28;20025;-90
2022/09/11 08:58:28;;;;;;;96.53;38.53;;;;;;;;;;5005270;28;20081;-90
2022/09/11 09:01:06;;;;;;;92.88;34.60;;;;;;;;;;5024978;28;20105;-90
2022/09/11 09:03:32;;;;;;;89.55;34.80;;;;;;;;;;5019016;28;20052;-89
2022/09/11 09:06:36;;;;;;;88.32;34.88;;;;;;;;;;5017659;28;20381;-91
2022/09/11 09:09:22;;;;;;;86.55;34.65;;;;;;;;;;4942473;28;20031;-91
2022/09/11 09:12:22;;;;;;;93.53;35.83;;;;;;;;;;4938771;28;20126;-91
2022/09/11 09:15:06;;;;;;;97.38;36.53;;;;;;;;;;4997445;28;20037;-90
2022/09/11 09:17:34;;;;;;;104.05;40.28;;;;;;;;;;5027584;28;20053;-90
2022/09/11 09:20:18;;;;;;;108.18;41.65;;;;;;;;;;5019435;28;20489;-91
2022/09/11 09:22:52;;;;;;;114.68;43.40;;;;;;;;;;5039349;28;20029;-89
2022/09/11 09:25:20;;;;;;;121.20;41.80;;;;;;;;;;5016862;28;20028;-90
2022/09/11 09:27:52;;;;;;;112.20;41.10;;;;;;;;;;5012464;28;20025;-91
2022/09/11 09:30:22;;;;;;;114.60;43.80;;;;;;;;;;5025698;28;20066;-90
2022/09/11 09:32:56;;;;;;;128.38;46.28;;;;;;;;;;5025211;28;20412;-90
2022/09/11 09:35:44;;;;;;;115.60;42.05;;;;;;;;;;5030454;28;20089;-92
2022/09/11 09:38:32;;;;;;;112.75;43.05;;;;;;;;;;5024688;28;20041;-92
2022/09/11 09:41:29;;;;;;;;;;;;;;;;;;;;;
2022/09/11 09:44:32;;;;;;;104.50;41.42;;;;;;;;;;5013067;28;20033;-90
2022/09/11 09:54:03;;;;;;;102.60;40.40;;;;;;;;;;4931025;28;20063;-91
2022/09/11 09:56:34;;;;;;;91.75;40.22;;;;;;;;;;4990781;28;20042;-92
2022/09/11 10:02:29;;;;;;;94.13;39.15;;;;;;;;;;4982188;28;20030;-92
2022/09/11 10:05:31;;;;;;;86.93;39.03;;;;;;;;;;4978467;28;20054;-92
2022/09/11 10:11:24;;;;;;;;;;;;;;;;;;;;;
2022/09/11 10:20:22;;;;;;;;;;;;;;;;;;;;;
2022/09/11 10:26:13;;;;;;;89.28;39.05;;;;;;;;;;4987323;28;20085;-90
2022/09/11 10:38:39;;;;;;;;;;;;;;;;;;;;;
2022/09/11 10:44:36;;;;;;;79.35;36.92;;;;;;;;;;4979325;28;20062;-91
2022/09/11 10:49:29;;;;;;;78.43;34.80;;;;;;;;;;5007197;28;20135;-64
2022/09/11 10:51:59;;;;;;;79.17;34.50;;;;;;;;;;5003736;28;20470;-64
2022/09/11 10:54:24;;;;;;;81.93;37.95;;;;;;;;;;5007863;28;20549;-64
2022/09/11 10:56:59;;;;;;;79.70;34.90;;;;;;;;;;5009858;28;20136;-64
2022/09/11 10:59:29;;;;;;;69.63;34.78;;;;;;;;;;4990221;28;20597;-63
2022/09/11 11:01:55;;;;;;;67.13;33.03;;;;;;;;;;4991328;28;20064;-65
2022/09/11 11:04:21;;;;;;;67.80;32.45;;;;;;;;;;4992310;28;20045;-64
2022/09/11 11:07:02;;;;;;;74.05;33.90;;;;;;;;;;4991303;28;21538;-64
2022/09/11 11:09:36;;;;;;;79.15;34.95;;;;;;;;;;4990920;28;20045;-64
2022/09/11 11:12:19;;;;;;;71.68;36.28;;;;;;;;;;4990049;28;20034;-64
2022/09/11 11:14:51;;;;;;;71.63;33.83;;;;;;;;;;4991745;28;20506;-64
2022/09/11 11:17:17;;;;;;;63.35;32.80;;;;;;;;;;4990866;28;20054;-63
2022/09/11 11:19:42;;;;;;;64.15;32.25;;;;;;;;;;4988879;28;20050;-64
2022/09/11 11:22:13;;;;;;;65.03;34.97;;;;;;;;;;4990532;28;20105;-63
2022/09/11 11:24:48;;;;;;;68.85;34.80;;;;;;;;;;4989463;28;20019;-65
2022/09/11 11:27:32;;;;;;;63.83;31.10;;;;;;;;;;5005499;28;20022;-64
2022/09/11 11:29:59;;;;;;;65.13;34.35;;;;;;;;;;4990068;28;20022;-65
2022/09/11 11:32:43;;;;;;;65.35;34.70;;;;;;;;;;4988462;28;20061;-65
2022/09/11 11:35:27;;;;;;;68.28;36.05;;;;;;;;;;4991477;28;20022;-64
2022/09/11 11:37:58;;;;;;;64.45;32.60;;;;;;;;;;4989977;28;20049;-65
2022/09/11 11:40:35;;;;;;;59.83;33.60;;;;;;;;;;4989060;28;20011;-65
2022/09/11 11:43:04;;;;;;;58.78;30.40;;;;;;;;;;4989415;28;20014;-64
2022/09/11 11:45:47;;;;;;;55.80;29.33;;;;;;;;;;4990904;28;20018;-64
2022/09/11 11:48:35;;;;;;;53.22;30.73;;;;;;;;;;4987784;28;20030;-64
2022/09/11 11:51:03;;;;;;;50.78;31.10;;;;;;;;;;4985406;28;20066;-65
2022/09/11 11:53:34;;;;;;;49.10;28.50;;;;;;;;;;4991614;28;20080;-64
2022/09/11 11:56:03;;;;;;;46.50;28.95;;;;;;;;;;4975061;28;20030;-65
2022/09/11 11:58:37;;;;;;;45.97;29.20;;;;;;;;;;4989209;28;20093;-65
2022/09/11 12:01:03;;;;;;;49.55;30.20;;;;;;;;;;4990218;28;20394;-65
2022/09/11 12:03:35;;;;;;;55.55;30.27;;;;;;;;;;4991351;28;20118;-65
2022/09/11 12:06:00;;;;;;;48.92;28.98;;;;;;;;;;4989879;28;20417;-65
2022/09/11 12:08:26;;;;;;;44.13;27.30;;;;;;;;;;4990356;28;20014;-65
2022/09/11 12:11:03;;;;;;;42.13;27.15;;;;;;;;;;4990405;28;20677;-64
2022/09/11 12:13:30;;;;;;;42.10;26.05;;;;;;;;;;4987933;28;20441;-65
2022/09/11 12:16:08;;;;;;;36.20;24.20;;;;;;;;;;4988243;28;20018;-64
2022/09/11 12:18:34;;;;;;;39.00;23.77;;;;;;;;;;4994738;28;20022;-64
2022/09/11 12:21:17;;;;;;;40.75;26.85;;;;;;;;;;4994929;28;20146;-64
2022/09/11 12:23:48;;;;;;;37.72;24.00;;;;;;;;;;4989917;28;20026;-64
2022/09/11 12:26:16;;;;;;;34.92;23.00;;;;;;;;;;4990392;28;20026;-64
2022/09/11 12:28:41;;;;;;;33.05;20.83;;;;;;;;;;4987818;28;20097;-64
2022/09/11 12:31:07;;;;;;;30.63;19.92;;;;;;;;;;4989224;28;20034;-64
2022/09/11 12:33:47;;;;;;;32.67;20.33;;;;;;;;;;4989618;28;20032;-64
2022/09/11 12:36:23;;;;;;;32.28;18.95;;;;;;;;;;4993741;28;20474;-65
2022/09/11 12:38:51;;;;;;;29.55;17.73;;;;;;;;;;4989654;28;20096;-65
2022/09/11 12:41:29;;;;;;;22.52;15.90;;;;;;;;;;4995549;28;20390;-65
2022/09/11 12:43:54;;;;;;;28.60;16.95;;;;;;;;;;4991026;28;20414;-65
2022/09/11 12:46:19;;;;;;;29.98;17.85;;;;;;;;;;5000482;28;20015;-65
2022/09/11 12:48:46;;;;;;;26.02;15.88;;;;;;;;;;4993602;28;20029;-65
2022/09/11 12:51:31;;;;;;;31.80;18.48;;;;;;;;;;4988545;28;20026;-64
2022/09/11 12:54:01;;;;;;;27.98;17.13;;;;;;;;;;4991028;28;20073;-65
2022/09/11 12:56:28;;;;;;;25.20;15.05;;;;;;;;;;4988336;28;20530;-65
2022/09/11 12:58:56;;;;;;;25.58;14.38;;;;;;;;;;4988837;28;20045;-65
2022/09/11 13:01:23;;;;;;;28.20;15.75;;;;;;;;;;4987743;28;20032;-65
2022/09/11 13:04:07;;;;;;;24.52;14.63;;;;;;;;;;4988426;28;20387;-65
2022/09/11 13:06:37;;;;;;;23.25;12.45;;;;;;;;;;4982741;28;20479;-65
2022/09/11 13:09:03;;;;;;;21.27;13.60;;;;;;;;;;4988561;28;20113;-65
2022/09/11 13:11:33;;;;;;;23.65;14.35;;;;;;;;;;4988822;28;20097;-65
2022/09/11 13:13:58;;;;;;;27.35;16.00;;;;;;;;;;4981491;28;20026;-65
2022/09/11 13:16:25;;;;;;;25.52;14.82;;;;;;;;;;4986522;28;20023;-65
2022/09/11 13:18:52;;;;;;;22.50;12.98;;;;;;;;;;4987364;28;20054;-65
2022/09/11 13:21:18;;;;;;;21.20;14.05;;;;;;;;;;4986849;28;20113;-65
2022/09/11 13:23:44;;;;;;;23.15;14.25;;;;;;;;;;4986785;28;20508;-65
2022/09/11 13:26:14;;;;;;;17.52;11.60;;;;;;;;;;4987377;28;20026;-65
2022/09/11 13:28:50;;;;;;;21.67;11.43;;;;;;;;;;4988963;28;20022;-64
2022/09/11 13:31:23;;;;;;;18.92;10.82;;;;;;;;;;4998789;28;20033;-64
2022/09/11 13:33:50;;;;;;;17.65;11.75;;;;;;;;;;4981674;28;20014;-64
2022/09/11 13:36:17;;;;;;;19.85;11.82;;;;;;;;;;4988404;28;20463;-64
2022/09/11 13:38:46;;;;;;;23.60;13.35;;;;;;;;;;4989021;28;20031;-64
2022/09/11 13:41:18;;;;;;;19.98;11.90;;;;;;;;;;4987698;28;20485;-65
2022/09/11 13:43:47;;;;;;;18.88;10.90;;;;;;;;;;4989007;28;20037;-65
2022/09/11 13:46:15;;;;;;;16.98;10.32;;;;;;;;;;4989603;28;20034;-65
2022/09/11 13:48:42;;;;;;;18.23;10.25;;;;;;;;;;4990103;28;20034;-64
2022/09/11 13:51:11;;;;;;;17.75;10.55;;;;;;;;;;4988119;28;20720;-65
2022/09/11 13:53:37;;;;;;;18.33;12.02;;;;;;;;;;4989158;28;20030;-65
2022/09/11 13:56:03;;;;;;;18.65;11.20;;;;;;;;;;4989357;28;20080;-65
2022/09/11 13:58:34;;;;;;;18.13;11.63;;;;;;;;;;4990404;28;20010;-65
2022/09/11 14:01:13;;;;;;;18.98;11.30;;;;;;;;;;4987450;28;20030;-64
2022/09/11 14:03:41;;;;;;;17.40;12.90;;;;;;;;;;4987451;28;20498;-64
2022/09/11 14:06:13;;;;;;;18.85;11.93;;;;;;;;;;4988580;28;20066;-65
2022/09/11 14:08:41;;;;;;;19.50;12.48;;;;;;;;;;4992243;28;20018;-65
2022/09/11 14:11:08;;;;;;;15.40;10.93;;;;;;;;;;4975295;28;20792;-64
2022/09/11 14:13:43;;;;;;;21.05;11.55;;;;;;;;;;4989581;28;20108;-65
2022/09/11 14:16:16;;;;;;;15.35;10.93;;;;;;;;;;4993170;28;20032;-65
2022/09/11 14:18:59;;;;;;;16.48;10.48;;;;;;;;;;4990983;28;20014;-65
2022/09/11 14:21:29;;;;;;;22.02;11.48;;;;;;;;;;4990940;28;20037;-65
2022/09/11 14:23:55;;;;;;;14.77;9.20;;;;;;;;;;4991372;28;20475;-65
2022/09/11 14:26:20;;;;;;;11.88;8.73;;;;;;;;;;4986669;28;20034;-65
2022/09/11 14:28:51;;;;;;;18.47;9.17;;;;;;;;;;5000645;28;20096;-65
2022/09/11 14:31:29;;;;;;;15.35;10.48;;;;;;;;;;4998955;28;20456;-65
2022/09/11 14:34:14;;;;;;;14.57;9.43;;;;;;;;;;4992359;28;20036;-65
2022/09/11 14:36:42;;;;;;;13.50;8.68;;;;;;;;;;4992336;28;20038;-64
2022/09/11 14:39:12;;;;;;;18.15;10.35;;;;;;;;;;4992112;28;20049;-65
2022/09/11 14:41:37;;;;;;;17.40;11.17;;;;;;;;;;4990524;28;20020;-66
2022/09/11 14:44:02;;;;;;;13.40;9.07;;;;;;;;;;4992570;28;20433;-64
2022/09/11 14:46:27;;;;;;;15.37;9.67;;;;;;;;;;4991493;28;20022;-65
2022/09/11 14:48:53;;;;;;;14.63;9.33;;;;;;;;;;4991961;28;20782;-65
2022/09/11 14:51:19;;;;;;;14.52;9.60;;;;;;;;;;4995757;28;20491;-65
2022/09/11 14:53:44;;;;;;;16.33;9.80;;;;;;;;;;4990783;28;20061;-66
2022/09/11 14:56:10;;;;;;;15.00;9.13;;;;;;;;;;4993278;28;20061;-65
2022/09/11 14:58:35;;;;;;;15.15;9.90;;;;;;;;;;5003138;28;20294;-65
2022/09/11 15:01:01;;;;;;;15.90;9.60;;;;;;;;;;4989771;28;20034;-65
2022/09/11 15:03:26;;;;;;;17.15;10.40;;;;;;;;;;4991187;28;20269;-65
2022/09/11 15:05:55;;;;;;;14.57;9.93;;;;;;;;;;4988892;28;20026;-65
2022/09/11 15:08:21;;;;;;;16.98;9.88;;;;;;;;;;4991803;28;21126;-65
2022/09/11 15:10:47;;;;;;;14.48;9.25;;;;;;;;;;4989846;28;20133;-65
2022/09/11 15:13:13;;;;;;;14.90;8.43;;;;;;;;;;4991693;28;20113;-65
2022/09/11 15:15:39;;;;;;;14.75;8.60;;;;;;;;;;4989899;28;20098;-65
2022/09/11 15:18:04;;;;;;;12.30;8.70;;;;;;;;;;4991309;28;20018;-66
2022/09/11 15:20:30;;;;;;;13.25;9.13;;;;;;;;;;4991829;28;20029;-65
2022/09/11 15:22:56;;;;;;;17.17;10.25;;;;;;;;;;4991365;28;20029;-64
2022/09/11 15:25:22;;;;;;;16.58;10.10;;;;;;;;;;4988976;28;20027;-66
2022/09/11 15:27:51;;;;;;;18.27;10.35;;;;;;;;;;4992042;28;20033;-65
2022/09/11 15:30:17;;;;;;;16.10;9.77;;;;;;;;;;4991480;28;20110;-65
2022/09/11 15:32:43;;;;;;;18.00;10.27;;;;;;;;;;4988018;28;20018;-65